sensor_id;sensor_type;location;lat;lon;timestamp;temperature;humidity
52943;DHT22;38809;53.300;6.614;2023-08-17T00:01:40;15.60;99.90
52943;DHT22;38809;53.300;6.614;2023-08-17T00:04:05;15.70;99.90
52943;DHT22;38809;53.300;6.614;2023-08-17T00:06:31;15.80;99.90
52943;DHT22;38809;53.300;6.614;2023-08-17T00:08:57;15.70;99.90
52943;DHT22;38809;53.300;6.614;2023-08-17T00:11:22;15.70;99.90
52943;DHT22;38809;53.300;6.614;2023-08-17T00:13:48;15.80;99.90
52943;DHT22;38809;53.300;6.614;2023-08-17T00:16:14;15.70;99.90
52943;DHT22;38809;53.300;6.614;2023-08-17T00:18:40;15.80;99.90
52943;DHT22;38809;53.300;6.614;2023-08-17T00:21:06;15.80;99.90
52943;DHT22;38809;53.300;6.614;2023-08-17T00:23:31;15.80;99.90
52943;DHT22;38809;53.300;6.614;2023-08-17T00:25:57;15.80;99.90
52943;DHT22;38809;53.300;6.614;2023-08-17T00:28:23;15.60;99.90
52943;DHT22;38809;53.300;6.614;2023-08-17T00:30:48;15.50;99.90
52943;DHT22;38809;53.300;6.614;2023-08-17T00:33:14;15.30;99.90
52943;DHT22;38809;53.300;6.614;2023-08-17T00:35:40;15.30;99.90
52943;DHT22;38809;53.300;6.614;2023-08-17T00:38:05;15.30;99.90
52943;DHT22;38809;53.300;6.614;2023-08-17T00:40:31;15.30;99.90
52943;DHT22;38809;53.300;6.614;2023-08-17T00:42:57;15.20;99.90
52943;DHT22;38809;53.300;6.614;2023-08-17T00:45:23;15.20;99.90
52943;DHT22;38809;53.300;6.614;2023-08-17T00:47:49;15.10;99.90
52943;DHT22;38809;53.300;6.614;2023-08-17T00:50:16;15.10;99.90
52943;DHT22;38809;53.300;6.614;2023-08-17T00:52:42;15.10;99.90
52943;DHT22;38809;53.300;6.614;2023-08-17T00:55:08;15.20;99.90
52943;DHT22;38809;53.300;6.614;2023-08-17T00:57:35;15.10;99.90
52943;DHT22;38809;53.300;6.614;2023-08-17T01:00:01;15.10;99.90
52943;DHT22;38809;53.300;6.614;2023-08-17T01:02:28;15.00;99.90
52943;DHT22;38809;53.300;6.614;2023-08-17T01:04:54;15.00;99.90
52943;DHT22;38809;53.300;6.614;2023-08-17T01:07:21;15.00;99.90
52943;DHT22;38809;53.300;6.614;2023-08-17T01:09:46;15.00;99.90
52943;DHT22;38809;53.300;6.614;2023-08-17T01:15:24;15.00;99.90
52943;DHT22;38809;53.300;6.614;2023-08-17T01:18:21;15.00;99.90
52943;DHT22;38809;53.300;6.614;2023-08-17T01:20:49;15.10;99.90
52943;DHT22;38809;53.300;6.614;2023-08-17T01:23:14;15.20;99.90
52943;DHT22;38809;53.300;6.614;2023-08-17T01:25:40;15.20;99.90
52943;DHT22;38809;53.300;6.614;2023-08-17T01:28:06;15.10;99.90
52943;DHT22;38809;53.300;6.614;2023-08-17T01:33:31;15.10;99.90
52943;DHT22;38809;53.300;6.614;2023-08-17T01:38:44;15.10;99.90
52943;DHT22;38809;53.300;6.614;2023-08-17T01:41:11;15.00;99.90
52943;DHT22;38809;53.300;6.614;2023-08-17T01:43:41;14.80;99.90
52943;DHT22;38809;53.300;6.614;2023-08-17T01:46:08;14.70;99.90
52943;DHT22;38809;53.300;6.614;2023-08-17T01:48:33;14.60;99.90
52943;DHT22;38809;53.300;6.614;2023-08-17T01:50:59;14.70;99.90
52943;DHT22;38809;53.300;6.614;2023-08-17T01:53:25;14.90;99.90
52943;DHT22;38809;53.300;6.614;2023-08-17T01:55:50;14.80;99.90
52943;DHT22;38809;53.300;6.614;2023-08-17T01:58:16;14.90;99.90
52943;DHT22;38809;53.300;6.614;2023-08-17T02:00:42;14.80;99.90
52943;DHT22;38809;53.300;6.614;2023-08-17T02:03:07;14.70;99.90
52943;DHT22;38809;53.300;6.614;2023-08-17T02:05:33;14.60;99.90
52943;DHT22;38809;53.300;6.614;2023-08-17T02:07:59;14.70;99.90
52943;DHT22;38809;53.300;6.614;2023-08-17T02:10:24;14.60;99.90
52943;DHT22;38809;53.300;6.614;2023-08-17T02:12:50;14.60;99.90
52943;DHT22;38809;53.300;6.614;2023-08-17T02:15:16;14.60;99.90
52943;DHT22;38809;53.300;6.614;2023-08-17T02:17:42;14.60;99.90
52943;DHT22;38809;53.300;6.614;2023-08-17T02:20:08;14.70;99.90
52943;DHT22;38809;53.300;6.614;2023-08-17T02:22:34;14.70;99.90
52943;DHT22;38809;53.300;6.614;2023-08-17T02:25:00;14.70;99.90
52943;DHT22;38809;53.300;6.614;2023-08-17T02:27:26;14.70;99.90
52943;DHT22;38809;53.300;6.614;2023-08-17T02:29:51;14.80;99.90
52943;DHT22;38809;53.300;6.614;2023-08-17T02:32:17;14.80;99.90
52943;DHT22;38809;53.300;6.614;2023-08-17T02:34:43;14.70;99.90
52943;DHT22;38809;53.300;6.614;2023-08-17T02:37:09;14.80;99.90
52943;DHT22;38809;53.300;6.614;2023-08-17T02:39:34;14.90;99.90
52943;DHT22;38809;53.300;6.614;2023-08-17T02:42:00;14.90;99.90
52943;DHT22;38809;53.300;6.614;2023-08-17T02:44:26;14.80;99.90
52943;DHT22;38809;53.300;6.614;2023-08-17T02:46:54;14.80;99.90
52943;DHT22;38809;53.300;6.614;2023-08-17T02:49:19;14.90;99.90
52943;DHT22;38809;53.300;6.614;2023-08-17T02:51:45;14.90;99.90
52943;DHT22;38809;53.300;6.614;2023-08-17T02:54:11;14.90;99.90
52943;DHT22;38809;53.300;6.614;2023-08-17T02:56:37;14.90;99.90
52943;DHT22;38809;53.300;6.614;2023-08-17T02:59:02;14.90;99.90
52943;DHT22;38809;53.300;6.614;2023-08-17T03:01:28;14.80;99.90
52943;DHT22;38809;53.300;6.614;2023-08-17T03:03:55;14.70;99.90
52943;DHT22;38809;53.300;6.614;2023-08-17T03:06:21;14.70;99.90
52943;DHT22;38809;53.300;6.614;2023-08-17T03:08:46;14.60;99.90
52943;DHT22;38809;53.300;6.614;2023-08-17T03:11:12;14.50;99.90
52943;DHT22;38809;53.300;6.614;2023-08-17T03:13:38;14.50;99.90
52943;DHT22;38809;53.300;6.614;2023-08-17T03:16:04;14.60;99.90
52943;DHT22;38809;53.300;6.614;2023-08-17T03:18:29;14.60;99.90
52943;DHT22;38809;53.300;6.614;2023-08-17T03:20:55;14.60;99.90
52943;DHT22;38809;53.300;6.614;2023-08-17T03:23:21;14.70;99.90
52943;DHT22;38809;53.300;6.614;2023-08-17T03:25:51;14.80;99.90
52943;DHT22;38809;53.300;6.614;2023-08-17T03:28:17;14.80;99.90
52943;DHT22;38809;53.300;6.614;2023-08-17T03:30:43;14.60;99.90
52943;DHT22;38809;53.300;6.614;2023-08-17T03:33:09;14.90;99.90
52943;DHT22;38809;53.300;6.614;2023-08-17T03:35:34;14.90;99.90
52943;DHT22;38809;53.300;6.614;2023-08-17T03:38:00;14.90;99.90
52943;DHT22;38809;53.300;6.614;2023-08-17T03:40:26;14.90;99.90
52943;DHT22;38809;53.300;6.614;2023-08-17T03:42:51;14.90;99.90
52943;DHT22;38809;53.300;6.614;2023-08-17T03:45:18;14.80;99.90
52943;DHT22;38809;53.300;6.614;2023-08-17T03:47:44;14.80;99.90
52943;DHT22;38809;53.300;6.614;2023-08-17T03:50:10;14.80;99.90
52943;DHT22;38809;53.300;6.614;2023-08-17T03:52:35;14.80;99.90
52943;DHT22;38809;53.300;6.614;2023-08-17T03:55:01;14.80;99.90
52943;DHT22;38809;53.300;6.614;2023-08-17T03:57:27;15.00;99.90
52943;DHT22;38809;53.300;6.614;2023-08-17T03:59:53;15.00;99.90
52943;DHT22;38809;53.300;6.614;2023-08-17T04:02:18;15.10;99.90
52943;DHT22;38809;53.300;6.614;2023-08-17T04:04:44;15.10;99.90
52943;DHT22;38809;53.300;6.614;2023-08-17T04:07:10;15.20;99.90
52943;DHT22;38809;53.300;6.614;2023-08-17T04:09:36;15.10;99.90
52943;DHT22;38809;53.300;6.614;2023-08-17T04:12:02;15.20;99.90
52943;DHT22;38809;53.300;6.614;2023-08-17T04:14:30;15.20;99.90
52943;DHT22;38809;53.300;6.614;2023-08-17T04:16:56;15.20;99.90
52943;DHT22;38809;53.300;6.614;2023-08-17T04:19:23;16.20;99.90
52943;DHT22;38809;53.300;6.614;2023-08-17T04:21:49;15.20;99.90
52943;DHT22;38809;53.300;6.614;2023-08-17T04:24:14;15.20;99.90
52943;DHT22;38809;53.300;6.614;2023-08-17T04:26:40;15.30;99.90
52943;DHT22;38809;53.300;6.614;2023-08-17T04:29:06;15.20;99.90
52943;DHT22;38809;53.300;6.614;2023-08-17T04:31:31;15.30;99.90
52943;DHT22;38809;53.300;6.614;2023-08-17T04:33:57;15.30;99.90
52943;DHT22;38809;53.300;6.614;2023-08-17T04:36:23;15.30;99.90
52943;DHT22;38809;53.300;6.614;2023-08-17T04:38:48;15.20;99.90
52943;DHT22;38809;53.300;6.614;2023-08-17T04:41:14;15.20;99.90
52943;DHT22;38809;53.300;6.614;2023-08-17T04:43:40;15.10;99.90
52943;DHT22;38809;53.300;6.614;2023-08-17T04:46:06;15.10;99.90
52943;DHT22;38809;53.300;6.614;2023-08-17T04:48:31;15.10;99.90
52943;DHT22;38809;53.300;6.614;2023-08-17T04:50:57;15.00;99.90
52943;DHT22;38809;53.300;6.614;2023-08-17T04:53:23;15.00;99.90
52943;DHT22;38809;53.300;6.614;2023-08-17T04:55:48;15.20;99.90
52943;DHT22;38809;53.300;6.614;2023-08-17T04:58:14;15.10;99.90
52943;DHT22;38809;53.300;6.614;2023-08-17T05:00:40;15.10;99.90
52943;DHT22;38809;53.300;6.614;2023-08-17T05:03:05;15.10;99.90
52943;DHT22;38809;53.300;6.614;2023-08-17T05:05:31;15.10;99.90
52943;DHT22;38809;53.300;6.614;2023-08-17T05:07:57;15.10;99.90
52943;DHT22;38809;53.300;6.614;2023-08-17T05:10:22;15.10;99.90
52943;DHT22;38809;53.300;6.614;2023-08-17T05:12:48;15.10;99.90
52943;DHT22;38809;53.300;6.614;2023-08-17T05:15:14;15.10;99.90
52943;DHT22;38809;53.300;6.614;2023-08-17T05:17:40;15.10;99.90
52943;DHT22;38809;53.300;6.614;2023-08-17T05:20:06;15.10;99.90
52943;DHT22;38809;53.300;6.614;2023-08-17T05:22:33;15.20;99.90
52943;DHT22;38809;53.300;6.614;2023-08-17T05:24:59;15.30;99.90
52943;DHT22;38809;53.300;6.614;2023-08-17T05:27:25;15.30;99.90
52943;DHT22;38809;53.300;6.614;2023-08-17T05:29:50;15.30;99.90
52943;DHT22;38809;53.300;6.614;2023-08-17T05:32:16;15.30;99.90
52943;DHT22;38809;53.300;6.614;2023-08-17T05:34:42;15.40;99.90
52943;DHT22;38809;53.300;6.614;2023-08-17T05:37:07;15.30;99.90
52943;DHT22;38809;53.300;6.614;2023-08-17T05:39:33;15.40;99.90
52943;DHT22;38809;53.300;6.614;2023-08-17T05:41:59;15.30;99.90
52943;DHT22;38809;53.300;6.614;2023-08-17T05:44:24;15.40;99.90
52943;DHT22;38809;53.300;6.614;2023-08-17T05:46:50;15.40;99.90
52943;DHT22;38809;53.300;6.614;2023-08-17T05:49:16;15.50;99.90
52943;DHT22;38809;53.300;6.614;2023-08-17T05:51:42;15.60;99.90
52943;DHT22;38809;53.300;6.614;2023-08-17T05:54:07;15.70;99.90
52943;DHT22;38809;53.300;6.614;2023-08-17T05:56:33;15.80;99.90
52943;DHT22;38809;53.300;6.614;2023-08-17T05:58:59;16.00;99.90
52943;DHT22;38809;53.300;6.614;2023-08-17T06:01:24;16.10;99.90
52943;DHT22;38809;53.300;6.614;2023-08-17T06:03:51;16.30;99.90
52943;DHT22;38809;53.300;6.614;2023-08-17T06:06:16;16.30;99.90
52943;DHT22;38809;53.300;6.614;2023-08-17T06:08:42;16.40;99.90
52943;DHT22;38809;53.300;6.614;2023-08-17T06:11:08;16.40;99.90
52943;DHT22;38809;53.300;6.614;2023-08-17T06:13:33;16.50;99.90
52943;DHT22;38809;53.300;6.614;2023-08-17T06:16:01;16.50;99.90
52943;DHT22;38809;53.300;6.614;2023-08-17T06:18:27;16.50;99.90
52943;DHT22;38809;53.300;6.614;2023-08-17T06:20:52;16.60;99.90
52943;DHT22;38809;53.300;6.614;2023-08-17T06:23:19;16.70;99.90
52943;DHT22;38809;53.300;6.614;2023-08-17T06:25:45;16.70;99.90
52943;DHT22;38809;53.300;6.614;2023-08-17T06:28:11;16.70;99.90
52943;DHT22;38809;53.300;6.614;2023-08-17T06:30:37;16.80;99.90
52943;DHT22;38809;53.300;6.614;2023-08-17T06:33:03;16.80;99.90
52943;DHT22;38809;53.300;6.614;2023-08-17T06:35:30;16.80;99.90
52943;DHT22;38809;53.300;6.614;2023-08-17T06:37:56;16.80;99.90
52943;DHT22;38809;53.300;6.614;2023-08-17T06:40:24;16.80;99.90
52943;DHT22;38809;53.300;6.614;2023-08-17T06:42:49;16.80;99.90
52943;DHT22;38809;53.300;6.614;2023-08-17T06:45:15;16.80;99.90
52943;DHT22;38809;53.300;6.614;2023-08-17T06:47:45;16.80;99.90
52943;DHT22;38809;53.300;6.614;2023-08-17T06:50:11;16.90;99.90
52943;DHT22;38809;53.300;6.614;2023-08-17T06:52:37;16.90;99.90
52943;DHT22;38809;53.300;6.614;2023-08-17T06:55:03;16.90;99.90
52943;DHT22;38809;53.300;6.614;2023-08-17T06:57:28;16.90;99.90
52943;DHT22;38809;53.300;6.614;2023-08-17T06:59:54;16.80;99.90
52943;DHT22;38809;53.300;6.614;2023-08-17T07:02:20;16.70;99.90
52943;DHT22;38809;53.300;6.614;2023-08-17T07:04:46;16.80;99.90
52943;DHT22;38809;53.300;6.614;2023-08-17T07:07:12;17.00;99.90
52943;DHT22;38809;53.300;6.614;2023-08-17T07:09:40;17.30;99.90
52943;DHT22;38809;53.300;6.614;2023-08-17T07:12:06;17.30;99.90
52943;DHT22;38809;53.300;6.614;2023-08-17T07:14:31;17.30;99.90
52943;DHT22;38809;53.300;6.614;2023-08-17T07:16:59;17.30;99.90
52943;DHT22;38809;53.300;6.614;2023-08-17T07:19:25;17.10;99.90
52943;DHT22;38809;53.300;6.614;2023-08-17T07:21:51;17.10;99.90
52943;DHT22;38809;53.300;6.614;2023-08-17T07:24:17;17.20;99.90
52943;DHT22;38809;53.300;6.614;2023-08-17T07:26:43;17.20;99.90
52943;DHT22;38809;53.300;6.614;2023-08-17T07:29:09;17.00;99.90
52943;DHT22;38809;53.300;6.614;2023-08-17T07:31:34;16.90;99.90
52943;DHT22;38809;53.300;6.614;2023-08-17T07:34:04;16.90;99.90
52943;DHT22;38809;53.300;6.614;2023-08-17T07:36:30;17.10;99.90
52943;DHT22;38809;53.300;6.614;2023-08-17T07:38:56;17.10;99.90
52943;DHT22;38809;53.300;6.614;2023-08-17T07:41:21;17.10;99.90
52943;DHT22;38809;53.300;6.614;2023-08-17T07:43:47;17.10;99.90
52943;DHT22;38809;53.300;6.614;2023-08-17T07:46:13;17.00;99.90
52943;DHT22;38809;53.300;6.614;2023-08-17T07:48:38;17.10;99.90
52943;DHT22;38809;53.300;6.614;2023-08-17T07:51:04;17.10;99.90
52943;DHT22;38809;53.300;6.614;2023-08-17T07:53:30;17.20;99.90
52943;DHT22;38809;53.300;6.614;2023-08-17T07:55:55;17.30;99.90
52943;DHT22;38809;53.300;6.614;2023-08-17T07:58:21;17.40;99.90
52943;DHT22;38809;53.300;6.614;2023-08-17T08:00:47;17.50;99.90
52943;DHT22;38809;53.300;6.614;2023-08-17T08:03:14;17.50;99.90
52943;DHT22;38809;53.300;6.614;2023-08-17T08:05:40;17.50;99.90
52943;DHT22;38809;53.300;6.614;2023-08-17T08:08:06;17.40;99.90
52943;DHT22;38809;53.300;6.614;2023-08-17T08:10:31;17.60;99.90
52943;DHT22;38809;53.300;6.614;2023-08-17T08:12:57;17.90;99.90
52943;DHT22;38809;53.300;6.614;2023-08-17T08:15:23;18.10;99.90
52943;DHT22;38809;53.300;6.614;2023-08-17T08:17:49;18.10;99.90
52943;DHT22;38809;53.300;6.614;2023-08-17T08:20:14;18.50;99.90
52943;DHT22;38809;53.300;6.614;2023-08-17T08:22:40;18.50;99.90
52943;DHT22;38809;53.300;6.614;2023-08-17T08:25:06;18.60;99.90
52943;DHT22;38809;53.300;6.614;2023-08-17T08:27:32;18.30;99.90
52943;DHT22;38809;53.300;6.614;2023-08-17T08:29:57;17.80;99.90
52943;DHT22;38809;53.300;6.614;2023-08-17T08:32:23;17.90;99.90
52943;DHT22;38809;53.300;6.614;2023-08-17T08:34:49;17.50;99.90
52943;DHT22;38809;53.300;6.614;2023-08-17T08:37:15;17.50;99.90
52943;DHT22;38809;53.300;6.614;2023-08-17T08:39:51;17.50;99.90
52943;DHT22;38809;53.300;6.614;2023-08-17T08:42:19;17.50;99.90
52943;DHT22;38809;53.300;6.614;2023-08-17T08:44:45;17.40;99.90
52943;DHT22;38809;53.300;6.614;2023-08-17T08:47:12;17.40;99.90
52943;DHT22;38809;53.300;6.614;2023-08-17T08:49:40;17.50;99.90
52943;DHT22;38809;53.300;6.614;2023-08-17T08:52:08;17.50;99.90
52943;DHT22;38809;53.300;6.614;2023-08-17T08:54:37;17.50;99.90
52943;DHT22;38809;53.300;6.614;2023-08-17T08:57:08;17.50;99.90
52943;DHT22;38809;53.300;6.614;2023-08-17T08:59:35;17.40;99.90
52943;DHT22;38809;53.300;6.614;2023-08-17T09:02:03;17.40;99.90
52943;DHT22;38809;53.300;6.614;2023-08-17T09:04:29;17.50;99.90
52943;DHT22;38809;53.300;6.614;2023-08-17T09:06:55;17.50;99.90
52943;DHT22;38809;53.300;6.614;2023-08-17T09:09:22;17.60;99.90
52943;DHT22;38809;53.300;6.614;2023-08-17T09:11:48;17.60;99.90
52943;DHT22;38809;53.300;6.614;2023-08-17T09:14:14;17.60;99.90
52943;DHT22;38809;53.300;6.614;2023-08-17T09:16:39;17.80;99.90
52943;DHT22;38809;53.300;6.614;2023-08-17T09:19:06;17.80;99.90
52943;DHT22;38809;53.300;6.614;2023-08-17T09:21:32;17.80;99.90
52943;DHT22;38809;53.300;6.614;2023-08-17T09:23:58;17.80;99.90
52943;DHT22;38809;53.300;6.614;2023-08-17T09:26:24;17.80;99.90
52943;DHT22;38809;53.300;6.614;2023-08-17T09:28:53;17.90;99.90
52943;DHT22;38809;53.300;6.614;2023-08-17T09:31:24;18.10;99.90
52943;DHT22;38809;53.300;6.614;2023-08-17T09:33:50;18.20;99.90
52943;DHT22;38809;53.300;6.614;2023-08-17T09:36:24;18.30;99.90
52943;DHT22;38809;53.300;6.614;2023-08-17T09:38:51;18.70;99.90
52943;DHT22;38809;53.300;6.614;2023-08-17T09:41:19;18.60;99.90
52943;DHT22;38809;53.300;6.614;2023-08-17T09:43:48;18.40;99.90
52943;DHT22;38809;53.300;6.614;2023-08-17T09:46:14;18.40;99.90
52943;DHT22;38809;53.300;6.614;2023-08-17T09:48:43;18.60;99.90
52943;DHT22;38809;53.300;6.614;2023-08-17T09:51:10;18.80;99.90
52943;DHT22;38809;53.300;6.614;2023-08-17T09:53:36;18.80;99.90
52943;DHT22;38809;53.300;6.614;2023-08-17T09:56:07;19.10;99.90
52943;DHT22;38809;53.300;6.614;2023-08-17T09:58:36;19.60;99.90
52943;DHT22;38809;53.300;6.614;2023-08-17T10:01:04;19.90;99.90
52943;DHT22;38809;53.300;6.614;2023-08-17T10:03:33;19.90;99.90
52943;DHT22;38809;53.300;6.614;2023-08-17T10:06:05;20.10;99.90
52943;DHT22;38809;53.300;6.614;2023-08-17T10:08:36;19.80;99.90
52943;DHT22;38809;53.300;6.614;2023-08-17T10:11:06;20.20;99.90
52943;DHT22;38809;53.300;6.614;2023-08-17T10:16:18;20.00;99.90
52943;DHT22;38809;53.300;6.614;2023-08-17T10:18:54;20.10;99.90
52943;DHT22;38809;53.300;6.614;2023-08-17T10:21:31;20.10;99.90
52943;DHT22;38809;53.300;6.614;2023-08-17T10:23:58;20.30;99.90
52943;DHT22;38809;53.300;6.614;2023-08-17T10:26:24;20.60;99.90
52943;DHT22;38809;53.300;6.614;2023-08-17T10:28:52;20.10;99.90
52943;DHT22;38809;53.300;6.614;2023-08-17T10:31:17;20.30;99.90
52943;DHT22;38809;53.300;6.614;2023-08-17T10:33:44;20.40;99.90
52943;DHT22;38809;53.300;6.614;2023-08-17T10:36:13;20.00;99.90
52943;DHT22;38809;53.300;6.614;2023-08-17T10:38:40;20.00;99.90
52943;DHT22;38809;53.300;6.614;2023-08-17T10:41:10;20.00;99.90
52943;DHT22;38809;53.300;6.614;2023-08-17T10:43:58;19.70;99.90
52943;DHT22;38809;53.300;6.614;2023-08-17T10:46:35;19.30;99.90
52943;DHT22;38809;53.300;6.614;2023-08-17T10:49:04;19.60;99.90
52943;DHT22;38809;53.300;6.614;2023-08-17T10:51:33;19.40;99.90
52943;DHT22;38809;53.300;6.614;2023-08-17T10:54:03;19.40;99.90
52943;DHT22;38809;53.300;6.614;2023-08-17T10:56:29;19.20;99.90
52943;DHT22;38809;53.300;6.614;2023-08-17T10:59:00;19.70;99.90
52943;DHT22;38809;53.300;6.614;2023-08-17T11:01:36;20.20;99.90
52943;DHT22;38809;53.300;6.614;2023-08-17T11:04:22;20.50;99.90
52943;DHT22;38809;53.300;6.614;2023-08-17T11:07:01;20.00;99.90
52943;DHT22;38809;53.300;6.614;2023-08-17T11:09:27;20.30;99.90
52943;DHT22;38809;53.300;6.614;2023-08-17T11:11:53;20.10;99.90
52943;DHT22;38809;53.300;6.614;2023-08-17T11:14:20;20.40;99.90
52943;DHT22;38809;53.300;6.614;2023-08-17T11:16:49;20.50;99.90
52943;DHT22;38809;53.300;6.614;2023-08-17T11:19:17;20.60;99.90
52943;DHT22;38809;53.300;6.614;2023-08-17T11:21:43;20.20;99.90
52943;DHT22;38809;53.300;6.614;2023-08-17T11:24:10;20.00;99.90
52943;DHT22;38809;53.300;6.614;2023-08-17T11:26:36;20.10;99.90
52943;DHT22;38809;53.300;6.614;2023-08-17T11:29:02;20.30;99.90
52943;DHT22;38809;53.300;6.614;2023-08-17T11:31:28;20.50;99.90
52943;DHT22;38809;53.300;6.614;2023-08-17T11:33:54;20.30;99.90
52943;DHT22;38809;53.300;6.614;2023-08-17T11:36:20;20.10;99.90
52943;DHT22;38809;53.300;6.614;2023-08-17T11:38:47;19.80;99.90
52943;DHT22;38809;53.300;6.614;2023-08-17T11:41:13;20.20;99.90
52943;DHT22;38809;53.300;6.614;2023-08-17T11:43:40;20.40;99.90
52943;DHT22;38809;53.300;6.614;2023-08-17T11:46:06;19.90;99.90
52943;DHT22;38809;53.300;6.614;2023-08-17T11:48:32;20.30;99.90
52943;DHT22;38809;53.300;6.614;2023-08-17T11:50:57;20.50;99.90
52943;DHT22;38809;53.300;6.614;2023-08-17T11:53:23;20.10;99.90
52943;DHT22;38809;53.300;6.614;2023-08-17T11:55:50;20.00;99.90
52943;DHT22;38809;53.300;6.614;2023-08-17T11:58:16;20.30;99.90
52943;DHT22;38809;53.300;6.614;2023-08-17T12:00:44;20.30;99.90
52943;DHT22;38809;53.300;6.614;2023-08-17T12:03:16;19.70;99.90
52943;DHT22;38809;53.300;6.614;2023-08-17T12:05:44;19.80;99.90
52943;DHT22;38809;53.300;6.614;2023-08-17T12:08:10;19.90;99.90
52943;DHT22;38809;53.300;6.614;2023-08-17T12:10:38;19.60;99.90
52943;DHT22;38809;53.300;6.614;2023-08-17T12:13:04;19.50;99.90
52943;DHT22;38809;53.300;6.614;2023-08-17T12:15:34;20.00;99.90
52943;DHT22;38809;53.300;6.614;2023-08-17T12:18:03;20.10;99.90
52943;DHT22;38809;53.300;6.614;2023-08-17T12:20:30;19.70;99.90
52943;DHT22;38809;53.300;6.614;2023-08-17T12:22:58;19.90;99.90
52943;DHT22;38809;53.300;6.614;2023-08-17T12:25:25;20.00;99.90
52943;DHT22;38809;53.300;6.614;2023-08-17T12:27:51;20.00;99.90
52943;DHT22;38809;53.300;6.614;2023-08-17T12:30:28;20.30;99.90
52943;DHT22;38809;53.300;6.614;2023-08-17T12:32:54;20.20;99.90
52943;DHT22;38809;53.300;6.614;2023-08-17T12:35:20;20.20;99.90
52943;DHT22;38809;53.300;6.614;2023-08-17T12:37:47;20.50;99.90
52943;DHT22;38809;53.300;6.614;2023-08-17T12:40:13;20.30;99.90
52943;DHT22;38809;53.300;6.614;2023-08-17T12:42:39;20.30;99.90
52943;DHT22;38809;53.300;6.614;2023-08-17T12:45:05;20.60;99.90
52943;DHT22;38809;53.300;6.614;2023-08-17T12:47:31;20.10;99.90
52943;DHT22;38809;53.300;6.614;2023-08-17T12:49:56;20.30;99.90
52943;DHT22;38809;53.300;6.614;2023-08-17T12:52:23;20.20;99.90
52943;DHT22;38809;53.300;6.614;2023-08-17T12:54:48;20.00;99.90
52943;DHT22;38809;53.300;6.614;2023-08-17T12:57:14;20.20;99.90
52943;DHT22;38809;53.300;6.614;2023-08-17T12:59:40;20.30;99.90
52943;DHT22;38809;53.300;6.614;2023-08-17T13:02:06;20.20;99.90
52943;DHT22;38809;53.300;6.614;2023-08-17T13:04:31;20.20;99.90
52943;DHT22;38809;53.300;6.614;2023-08-17T13:06:57;20.20;99.90
52943;DHT22;38809;53.300;6.614;2023-08-17T13:09:22;20.10;99.90
52943;DHT22;38809;53.300;6.614;2023-08-17T13:11:48;20.00;99.90
52943;DHT22;38809;53.300;6.614;2023-08-17T13:14:15;20.00;99.90
52943;DHT22;38809;53.300;6.614;2023-08-17T13:16:41;20.00;99.90
52943;DHT22;38809;53.300;6.614;2023-08-17T13:19:07;20.00;99.90
52943;DHT22;38809;53.300;6.614;2023-08-17T13:21:33;19.90;99.90
52943;DHT22;38809;53.300;6.614;2023-08-17T13:23:58;19.90;99.90
52943;DHT22;38809;53.300;6.614;2023-08-17T13:26:25;19.70;99.90
52943;DHT22;38809;53.300;6.614;2023-08-17T13:28:51;19.80;99.90
52943;DHT22;38809;53.300;6.614;2023-08-17T13:31:17;19.80;99.90
52943;DHT22;38809;53.300;6.614;2023-08-17T13:33:42;19.60;99.90
52943;DHT22;38809;53.300;6.614;2023-08-17T13:36:08;19.70;99.90
52943;DHT22;38809;53.300;6.614;2023-08-17T13:38:34;19.80;99.90
52943;DHT22;38809;53.300;6.614;2023-08-17T13:41:00;19.80;99.90
52943;DHT22;38809;53.300;6.614;2023-08-17T13:43:25;19.90;99.90
52943;DHT22;38809;53.300;6.614;2023-08-17T13:45:51;19.80;99.90
52943;DHT22;38809;53.300;6.614;2023-08-17T13:48:17;19.80;99.90
52943;DHT22;38809;53.300;6.614;2023-08-17T13:50:42;19.80;99.90
52943;DHT22;38809;53.300;6.614;2023-08-17T13:53:08;19.70;99.90
52943;DHT22;38809;53.300;6.614;2023-08-17T13:55:34;19.60;99.90
52943;DHT22;38809;53.300;6.614;2023-08-17T13:58:00;19.80;99.90
52943;DHT22;38809;53.300;6.614;2023-08-17T14:00:26;19.80;99.90
52943;DHT22;38809;53.300;6.614;2023-08-17T14:02:52;19.60;99.90
52943;DHT22;38809;53.300;6.614;2023-08-17T14:05:18;19.60;99.90
52943;DHT22;38809;53.300;6.614;2023-08-17T14:07:44;19.80;99.90
52943;DHT22;38809;53.300;6.614;2023-08-17T14:10:10;19.60;99.90
52943;DHT22;38809;53.300;6.614;2023-08-17T14:12:35;19.40;99.90
52943;DHT22;38809;53.300;6.614;2023-08-17T14:15:01;19.50;99.90
52943;DHT22;38809;53.300;6.614;2023-08-17T14:17:27;19.60;99.90
52943;DHT22;38809;53.300;6.614;2023-08-17T14:19:53;19.50;99.90
52943;DHT22;38809;53.300;6.614;2023-08-17T14:22:20;19.30;99.90
52943;DHT22;38809;53.300;6.614;2023-08-17T14:24:46;19.50;99.90
52943;DHT22;38809;53.300;6.614;2023-08-17T14:27:11;19.40;99.90
52943;DHT22;38809;53.300;6.614;2023-08-17T14:29:37;19.30;99.90
52943;DHT22;38809;53.300;6.614;2023-08-17T14:32:03;19.20;99.90
52943;DHT22;38809;53.300;6.614;2023-08-17T14:34:29;18.80;99.90
52943;DHT22;38809;53.300;6.614;2023-08-17T14:36:55;19.00;99.90
52943;DHT22;38809;53.300;6.614;2023-08-17T14:39:20;19.10;99.90
52943;DHT22;38809;53.300;6.614;2023-08-17T14:41:46;19.10;99.90
52943;DHT22;38809;53.300;6.614;2023-08-17T14:44:12;19.00;99.90
52943;DHT22;38809;53.300;6.614;2023-08-17T14:46:38;19.00;99.90
52943;DHT22;38809;53.300;6.614;2023-08-17T14:49:08;19.00;99.90
52943;DHT22;38809;53.300;6.614;2023-08-17T14:51:38;19.00;99.90
52943;DHT22;38809;53.300;6.614;2023-08-17T14:54:05;19.10;99.90
52943;DHT22;38809;53.300;6.614;2023-08-17T14:56:31;19.10;99.90
52943;DHT22;38809;53.300;6.614;2023-08-17T14:58:56;19.00;99.90
52943;DHT22;38809;53.300;6.614;2023-08-17T15:01:22;18.90;99.90
52943;DHT22;38809;53.300;6.614;2023-08-17T15:03:48;19.00;99.90
52943;DHT22;38809;53.300;6.614;2023-08-17T15:06:14;19.00;99.90
52943;DHT22;38809;53.300;6.614;2023-08-17T15:08:39;18.80;99.90
52943;DHT22;38809;53.300;6.614;2023-08-17T15:11:05;18.90;99.90
52943;DHT22;38809;53.300;6.614;2023-08-17T15:13:31;18.80;99.90
52943;DHT22;38809;53.300;6.614;2023-08-17T15:15:58;18.90;99.90
52943;DHT22;38809;53.300;6.614;2023-08-17T15:18:24;18.70;99.90
52943;DHT22;38809;53.300;6.614;2023-08-17T15:20:50;18.80;99.90
52943;DHT22;38809;53.300;6.614;2023-08-17T15:23:15;19.00;99.90
52943;DHT22;38809;53.300;6.614;2023-08-17T15:25:41;18.90;99.90
52943;DHT22;38809;53.300;6.614;2023-08-17T15:28:07;18.90;99.90
52943;DHT22;38809;53.300;6.614;2023-08-17T15:30:33;18.90;99.90
52943;DHT22;38809;53.300;6.614;2023-08-17T15:32:58;18.90;99.90
52943;DHT22;38809;53.300;6.614;2023-08-17T15:35:24;18.90;99.90
52943;DHT22;38809;53.300;6.614;2023-08-17T15:37:50;19.00;99.90